Warren, Texas
Current Conditions -  °F | °C
As of 3:35 PM on Thursday 23 Oct 2014 (Local Time) from KJAS Reporting Station
NA  
Wind Chill: 72°   Ceiling: NA
Heat Index: 72°   Visibility: 10mi
Dew Point: 52°   Wind: 7mph
Humidity: 49%   Direction: 310°NW
Pressure: 30.11"   Gusts: NA
Location:  30.62°N, 94.41°W
Report Text: KJAS 232035Z AUTO 31006KT 10SM 22/11 A3011 RMK AO2 T02220110
Loading
Personal Weather Stations






























Interactive Weather Map
Tropical Storm Tracking
New forecast layout! Learn more

10-Day Weather Forecast

Advertisements
Track Severe Weather on mobile